Time;durP1;ratioP1;P1;durP2;ratioP2;P2;SDS_P1;SDS_P2;PMS_P1;PMS_P2;Temp;Humidity;BMP_temperature;BMP_pressure;BME280_temperature;BME280_humidity;BME280_pressure;Samples;Min_cycle;Max_cycle;Signal;HPM_P1;HPM_P2
2022/10/24 00:01:02;;;;;;;4.87;4.47;;;;;;;14.31;70.49;100182.41;5074899;28;20255;-66
2022/10/24 00:03:28;;;;;;;5.20;4.67;;;;;;;14.27;70.48;100183.84;5074296;28;20261;-66
2022/10/24 00:05:55;;;;;;;6.23;4.13;;;;;;;14.24;70.20;100173.53;5074561;28;20195;-66
2022/10/24 00:08:22;;;;;;;4.43;3.73;;;;;;;14.19;69.85;100170.63;5073849;28;20257;-66
2022/10/24 00:10:49;;;;;;;3.90;3.43;;;;;;;14.13;68.92;100176.75;5073794;28;20760;-67
2022/10/24 00:13:17;;;;;;;4.00;3.80;;;;;;;13.99;69.38;100180.44;5073839;28;20196;-66
2022/10/24 00:15:46;;;;;;;4.07;3.47;;;;;;;13.92;69.24;100168.91;5074081;28;20225;-66
2022/10/24 00:18:13;;;;;;;4.23;3.57;;;;;;;13.81;68.92;100166.81;5074394;28;20269;-66
2022/10/24 00:20:41;;;;;;;3.60;3.30;;;;;;;13.66;69.17;100162.63;5074791;28;20249;-67
2022/10/24 00:23:08;;;;;;;3.93;3.63;;;;;;;13.66;69.48;100163.47;5073720;28;20192;-66
2022/10/24 00:25:36;;;;;;;4.07;3.77;;;;;;;13.61;69.65;100165.94;5074168;28;20266;-67
2022/10/24 00:28:03;;;;;;;3.40;3.13;;;;;;;13.57;69.44;100159.34;5073652;28;20192;-67
2022/10/24 00:30:30;;;;;;;3.40;3.20;;;;;;;13.56;69.47;100165.69;5073856;28;20188;-67
2022/10/24 00:32:58;;;;;;;3.63;3.40;;;;;;;13.64;69.60;100157.50;5073664;28;20192;-67
2022/10/24 00:35:25;;;;;;;4.97;3.37;;;;;;;13.71;69.28;100150.34;5073271;28;20214;-67
2022/10/24 00:37:51;;;;;;;3.50;3.30;;;;;;;13.71;68.71;100147.66;5073451;28;20217;-67
2022/10/24 00:40:20;;;;;;;3.47;3.17;;;;;;;13.69;69.14;100157.72;5073308;28;20556;-66
2022/10/24 00:42:47;;;;;;;4.17;3.13;;;;;;;13.69;68.75;100167.59;5074011;28;20196;-67
2022/10/24 00:45:48;;;;;;;3.10;2.90;;;;;;;13.74;68.63;100171.31;5073229;28;20664;-67
2022/10/24 00:48:31;;;;;;;3.00;2.60;;;;;;;13.73;68.08;100183.00;5011832;28;20268;-67
2022/10/24 00:51:02;;;;;;;6.03;2.87;;;;;;;13.67;68.49;100178.47;5011679;28;20182;-67
2022/10/24 00:53:31;;;;;;;3.63;3.33;;;;;;;13.69;68.42;100173.72;5047241;28;20196;-67
2022/10/24 00:56:02;;;;;;;4.77;2.60;;;;;;;13.67;68.26;100165.13;5073289;28;20191;-67
2022/10/24 00:58:31;;;;;;;3.20;3.00;;;;;;;13.76;68.18;100169.25;5073482;28;20269;-67
2022/10/24 01:00:58;;;;;;;3.53;3.33;;;;;;;13.78;68.06;100156.53;5072725;28;20196;-67
2022/10/24 01:03:26;;;;;;;3.17;2.83;;;;;;;13.84;67.64;100149.59;5073631;28;20195;-67
2022/10/24 01:06:16;;;;;;;3.10;2.77;;;;;;;13.91;67.22;100156.56;5073354;28;20187;-67
2022/10/24 01:08:47;;;;;;;3.60;3.40;;;;;;;13.86;67.00;100159.03;5073029;28;20200;-67
2022/10/24 01:11:30;;;;;;;4.57;4.10;;;;;;;13.89;67.28;100161.28;5072557;28;20235;-66
2022/10/24 01:14:02;;;;;;;2.83;2.73;;;;;;;13.96;67.11;100148.78;5072573;28;20191;-66
2022/10/24 01:16:42;;;;;;;6.60;3.10;;;;;;;13.99;67.18;100148.38;5072955;28;20184;-67
2022/10/24 01:19:31;;;;;;;5.63;2.67;;;;;;;13.99;67.19;100148.38;5072490;28;20212;-67
2022/10/24 01:22:03;;;;;;;4.37;2.73;;;;;;;14.01;67.12;100156.19;5072785;28;20192;-66
2022/10/24 01:24:45;;;;;;;5.37;2.80;;;;;;;13.99;66.98;100151.06;5072746;28;20188;-67
2022/10/24 01:27:32;;;;;;;5.00;3.47;;;;;;;13.91;67.21;100147.72;5052443;28;20247;-67
2022/10/24 01:30:06;;;;;;;5.27;3.30;;;;;;;13.83;67.81;100154.09;5068590;28;20191;-67
2022/10/24 01:32:46;;;;;;;3.53;3.27;;;;;;;13.82;68.28;100155.13;5073284;28;20184;-67
2022/10/24 01:35:26;;;;;;;4.23;2.63;;;;;;;13.85;68.00;100152.03;5071434;28;20210;-67
2022/10/24 01:38:00;;;;;;;3.73;3.43;;;;;;;13.85;67.94;100152.03;5072826;28;20248;-68
2022/10/24 01:40:33;;;;;;;4.17;2.97;;;;;;;13.87;67.77;100158.00;5071524;28;20685;-68
2022/10/24 01:43:06;;;;;;;3.73;3.20;;;;;;;13.86;67.78;100153.69;5072390;28;20245;-68
2022/10/24 01:45:38;;;;;;;4.70;2.90;;;;;;;13.83;68.56;100156.75;5072171;28;20188;-68
2022/10/24 01:48:10;;;;;;;4.13;3.30;;;;;;;13.84;68.50;100157.59;5071836;28;20189;-68
2022/10/24 01:50:39;;;;;;;4.60;3.73;;;;;;;13.81;67.85;100156.13;5072002;28;20200;-67
2022/10/24 01:53:09;;;;;;;4.67;3.23;;;;;;;13.82;68.40;100151.63;5072133;28;20253;-68
2022/10/24 01:55:37;;;;;;;6.23;3.97;;;;;;;13.81;68.28;100148.09;5071878;28;20192;-68
2022/10/24 01:58:05;;;;;;;3.93;3.50;;;;;;;13.78;68.36;100151.19;5071534;28;20253;-68
2022/10/24 02:00:34;;;;;;;3.60;3.40;;;;;;;13.72;68.33;100149.31;5071876;28;20215;-68
2022/10/24 02:03:05;;;;;;;5.30;3.73;;;;;;;13.65;69.17;100148.50;5072006;28;20195;-68
2022/10/24 02:05:36;;;;;;;4.17;3.77;;;;;;;13.65;69.57;100151.16;5071599;28;20184;-68
2022/10/24 02:08:07;;;;;;;4.03;3.57;;;;;;;13.61;69.72;100155.25;5071505;28;20249;-68
2022/10/24 02:10:39;;;;;;;3.77;3.47;;;;;;;13.57;69.96;100158.50;5071009;28;20192;-68
2022/10/24 02:13:12;;;;;;;4.07;3.77;;;;;;;13.49;69.96;100162.19;5071612;28;20184;-68
2022/10/24 02:15:45;;;;;;;5.50;3.60;;;;;;;13.35;70.38;100167.66;5071442;28;20243;-67
2022/10/24 02:18:12;;;;;;;4.33;4.10;;;;;;;13.37;70.63;100168.25;5072092;28;20180;-68
2022/10/24 02:20:45;;;;;;;6.77;4.13;;;;;;;13.26;70.46;100166.97;5071754;28;20280;-68
2022/10/24 02:23:20;;;;;;;8.43;4.40;;;;;;;13.23;71.21;100166.56;5071673;28;20184;-68
2022/10/24 02:25:52;;;;;;;9.27;4.97;;;;;;;13.19;71.15;100170.63;5071565;28;20192;-68
2022/10/24 02:28:22;;;;;;;9.77;4.77;;;;;;;13.08;71.62;100171.16;5069196;28;20245;-68
2022/10/24 02:30:55;;;;;;;13.77;5.00;;;;;;;13.09;71.31;100180.81;5058502;28;20203;-67
2022/10/24 02:33:23;;;;;;;15.80;4.87;;;;;;;13.14;71.21;100179.19;5070718;28;20659;-68
2022/10/24 02:35:51;;;;;;;20.83;5.23;;;;;;;13.17;71.23;100184.16;5070936;28;20192;-68
2022/10/24 02:38:24;;;;;;;23.57;5.90;;;;;;;13.17;71.14;100173.50;5071527;28;20576;-68
2022/10/24 02:40:52;;;;;;;9.63;4.60;;;;;;;13.22;70.72;100167.53;5071540;28;20212;-68
2022/10/24 02:43:21;;;;;;;13.90;4.90;;;;;;;13.25;71.02;100176.00;5071795;28;20192;-68
2022/10/24 02:45:52;;;;;;;23.07;6.00;;;;;;;13.23;71.09;100169.22;5071368;28;20192;-68
2022/10/24 02:48:23;;;;;;;26.17;6.47;;;;;;;13.24;71.36;100163.66;5074503;28;20257;-68
2022/10/24 02:50:49;;;;;;;20.70;5.17;;;;;;;13.08;71.29;100137.31;5075343;28;20191;-68
2022/10/24 02:53:21;;;;;;;22.30;5.63;;;;;;;13.24;71.34;100157.50;5075255;28;20253;-68
2022/10/24 02:55:47;;;;;;;15.10;4.97;;;;;;;13.18;71.33;100164.47;5075079;28;20667;-68
2022/10/24 02:58:14;;;;;;;18.03;5.17;;;;;;;13.14;71.00;100171.19;5075190;28;20187;-68
2022/10/24 03:00:41;;;;;;;21.40;5.77;;;;;;;13.16;71.59;100166.50;5075240;28;20220;-68
2022/10/24 03:03:09;;;;;;;16.13;5.33;;;;;;;13.16;71.61;100171.84;5075110;28;20192;-69
2022/10/24 03:05:36;;;;;;;15.60;5.73;;;;;;;13.19;71.64;100165.28;5074766;28;20196;-69
2022/10/24 03:08:03;;;;;;;12.70;5.57;;;;;;;13.21;71.22;100166.75;5074074;28;20188;-67
2022/10/24 03:10:29;;;;;;;15.20;4.87;;;;;;;13.10;71.06;100161.94;5074438;28;20241;-67
2022/10/24 03:12:56;;;;;;;19.13;4.67;;;;;;;13.08;71.65;100169.34;5074616;28;20192;-67
2022/10/24 03:15:23;;;;;;;11.03;5.63;;;;;;;13.10;72.05;100169.09;5074907;28;20245;-67
2022/10/24 03:17:50;;;;;;;12.10;4.87;;;;;;;13.10;71.82;100161.94;5074730;28;20639;-67
2022/10/24 03:20:18;;;;;;;10.10;4.27;;;;;;;13.07;71.98;100162.31;5074500;28;20285;-67
2022/10/24 03:22:45;;;;;;;14.37;5.93;;;;;;;13.07;71.65;100156.19;5074281;28;20733;-67
2022/10/24 03:25:11;;;;;;;12.23;5.33;;;;;;;13.05;72.15;100164.38;5074455;28;20254;-67
2022/10/24 03:27:39;;;;;;;9.10;5.00;;;;;;;13.04;71.76;100168.06;5074004;28;20250;-67
2022/10/24 03:30:07;;;;;;;12.83;4.73;;;;;;;13.01;71.95;100151.63;5074546;28;20199;-67
2022/10/24 03:32:34;;;;;;;10.73;4.60;;;;;;;13.05;72.16;100151.03;5073109;28;20200;-67
2022/10/24 03:35:01;;;;;;;15.60;4.17;;;;;;;13.05;72.36;100159.03;5074378;28;20727;-67
2022/10/24 03:37:29;;;;;;;12.33;4.90;;;;;;;13.05;72.47;100153.72;5074830;28;20257;-67
2022/10/24 03:39:56;;;;;;;12.33;4.37;;;;;;;13.08;72.12;100166.66;5074284;28;20220;-67
2022/10/24 03:42:22;;;;;;;14.77;5.77;;;;;;;13.04;72.15;100165.41;5074418;28;20711;-67
2022/10/24 03:44:49;;;;;;;8.87;5.13;;;;;;;13.05;72.37;100163.53;5074233;28;20191;-68
2022/10/24 03:47:16;;;;;;;8.63;4.83;;;;;;;12.99;72.38;100165.13;5074119;28;20254;-68
2022/10/24 03:49:43;;;;;;;10.33;4.80;;;;;;;13.03;72.41;100169.06;5073807;28;20196;-67
2022/10/24 03:52:09;;;;;;;11.47;4.97;;;;;;;13.04;72.80;100162.75;5073919;28;20663;-68
2022/10/24 03:54:38;;;;;;;16.27;5.43;;;;;;;13.06;72.13;100166.03;5073480;28;20196;-68
2022/10/24 03:57:05;;;;;;;18.07;5.50;;;;;;;13.08;72.01;100161.34;5073987;28;20234;-68
2022/10/24 03:59:32;;;;;;;11.87;5.20;;;;;;;13.03;71.87;100155.72;5073200;28;20285;-68
2022/10/24 04:02:00;;;;;;;15.90;5.53;;;;;;;12.87;72.76;100161.34;5073791;28;20212;-68
2022/10/24 04:04:27;;;;;;;14.10;5.70;;;;;;;12.76;72.90;100156.56;5073640;28;20683;-66
2022/10/24 04:06:53;;;;;;;31.80;8.10;;;;;;;12.65;73.61;100141.09;5073586;28;20617;-67
2022/10/24 04:09:20;;;;;;;20.27;6.97;;;;;;;12.82;73.56;100157.63;5074420;28;20200;-68
2022/10/24 04:11:50;;;;;;;31.10;7.13;;;;;;;12.80;73.57;100155.16;5073685;28;20711;-67
2022/10/24 04:14:16;;;;;;;28.50;6.77;;;;;;;12.82;73.35;100153.09;5073675;28;20192;-67
2022/10/24 04:16:43;;;;;;;16.47;6.63;;;;;;;12.84;73.52;100159.06;5073269;28;20569;-67
2022/10/24 04:19:10;;;;;;;19.13;6.97;;;;;;;12.83;73.33;100141.41;5073312;28;20257;-67
2022/10/24 04:21:37;;;;;;;17.80;6.07;;;;;;;12.89;73.05;100159.31;5072897;28;20283;-67
2022/10/24 04:24:04;;;;;;;54.33;9.43;;;;;;;12.90;73.24;100155.63;5073198;28;20192;-68
2022/10/24 04:26:32;;;;;;;31.43;7.30;;;;;;;12.92;72.94;100148.25;5072755;28;20253;-68
2022/10/24 04:29:00;;;;;;;59.10;8.23;;;;;;;12.94;73.49;100151.53;5064841;28;20192;-67
2022/10/24 04:31:27;;;;;;;37.23;9.67;;;;;;;12.95;73.68;100153.19;5065002;28;20193;-67
2022/10/24 04:33:53;;;;;;;44.90;8.83;;;;;;;12.90;73.64;100142.28;5072992;28;20188;-68
2022/10/24 04:36:20;;;;;;;42.93;9.03;;;;;;;12.92;74.00;100147.44;5072806;28;20246;-66
2022/10/24 04:38:47;;;;;;;41.80;9.07;;;;;;;12.98;73.84;100158.16;5072827;28;20188;-68
2022/10/24 04:41:14;;;;;;;35.73;8.20;;;;;;;13.02;73.97;100147.97;5072637;28;20772;-68
2022/10/24 04:43:41;;;;;;;22.67;7.27;;;;;;;12.99;73.81;100159.81;5072253;28;20188;-68
2022/10/24 04:46:09;;;;;;;33.60;7.87;;;;;;;12.96;73.91;100154.84;5072334;28;20189;-69
2022/10/24 04:48:36;;;;;;;49.13;8.20;;;;;;;13.01;74.06;100147.13;5073013;28;20195;-68
2022/10/24 04:51:02;;;;;;;29.33;7.13;;;;;;;13.06;73.98;100149.19;5072402;28;20253;-68
2022/10/24 04:53:29;;;;;;;11.87;6.77;;;;;;;13.14;73.57;100151.69;5072591;28;20195;-68
2022/10/24 04:55:56;;;;;;;27.80;9.10;;;;;;;13.20;73.60;100148.25;5072955;28;20253;-68
2022/10/24 04:58:23;;;;;;;35.47;11.40;;;;;;;13.25;73.41;100154.66;5072429;28;20253;-68
2022/10/24 05:00:50;;;;;;;45.73;13.97;;;;;;;13.29;73.48;100155.91;5072105;28;20223;-68
2022/10/24 05:03:19;;;;;;;24.27;12.20;;;;;;;13.35;73.59;100154.31;5072432;28;20253;-68
2022/10/24 05:05:46;;;;;;;36.17;12.67;;;;;;;13.32;73.50;100160.81;5071939;28;20188;-68
2022/10/24 05:08:13;;;;;;;38.60;11.97;;;;;;;13.31;73.35;100164.53;5072107;28;20196;-68
2022/10/24 05:10:40;;;;;;;32.20;12.97;;;;;;;13.35;73.72;100163.09;5070829;28;20681;-68
2022/10/24 05:13:07;;;;;;;35.40;15.83;;;;;;;13.45;72.93;100163.59;5072293;28;20276;-68
2022/10/24 05:15:34;;;;;;;32.10;12.87;;;;;;;13.60;73.37;100166.94;5071824;28;20192;-68
2022/10/24 05:18:00;;;;;;;66.90;14.20;;;;;;;13.82;72.50;100167.63;5072545;28;20200;-67
2022/10/24 05:20:29;;;;;;;44.93;11.50;;;;;;;13.98;71.14;100177.97;5072463;28;20224;-68
2022/10/24 05:22:55;;;;;;;26.80;8.70;;;;;;;14.03;70.40;100180.84;5072298;28;20192;-67
2022/10/24 05:25:23;;;;;;;29.23;8.13;;;;;;;14.09;70.40;100169.38;5071341;28;20192;-68
2022/10/24 05:27:49;;;;;;;27.63;8.43;;;;;;;14.23;70.14;100182.59;5071643;28;20199;-68
2022/10/24 05:30:16;;;;;;;36.17;7.93;;;;;;;14.36;71.14;100190.63;5056014;28;20195;-69
2022/10/24 05:32:43;;;;;;;17.13;6.83;;;;;;;14.70;71.95;100187.75;5071544;28;20196;-67
2022/10/24 05:35:10;;;;;;;22.60;6.80;;;;;;;15.67;72.56;100205.56;5068292;28;20196;-70
2022/10/24 05:37:38;;;;;;;18.27;7.40;;;;;;;16.09;64.17;100208.69;5071636;28;20634;-69
2022/10/24 05:40:06;;;;;;;22.67;7.30;;;;;;;16.35;63.09;100208.53;5072450;28;20269;-67
2022/10/24 05:42:33;;;;;;;28.87;7.50;;;;;;;16.51;61.81;100218.78;5072044;28;20196;-67
2022/10/24 05:45:00;;;;;;;21.93;7.43;;;;;;;16.71;62.02;100214.09;5071247;28;20625;-68
2022/10/24 05:47:26;;;;;;;20.03;6.17;;;;;;;17.36;64.76;100205.47;5052186;28;20203;-67
2022/10/24 05:49:53;;;;;;;20.13;6.10;;;;;;;18.38;63.04;100209.81;5052084;28;20246;-67
2022/10/24 05:52:20;;;;;;;22.70;6.80;;;;;;;18.99;61.92;100212.19;5052708;28;20197;-68
2022/10/24 05:54:48;;;;;;;14.20;6.23;;;;;;;19.65;57.68;100223.44;5061510;28;20196;-66
2022/10/24 05:57:14;;;;;;;32.50;7.07;;;;;;;20.22;53.53;100206.31;5051765;28;20722;-67
2022/10/24 05:59:41;;;;;;;33.90;7.60;;;;;;;20.84;47.72;100226.06;5051819;28;20200;-70
2022/10/24 06:02:16;;;;;;;19.37;7.43;;;;;;;20.94;47.22;100212.75;5051839;28;20254;-68
2022/10/24 06:04:43;;;;;;;29.92;6.40;;;;;;;20.95;50.79;100217.09;5052527;28;20427;-70
2022/10/24 06:07:09;;;;;;;21.43;7.83;;;;;;;21.06;46.48;100219.69;5051534;28;20197;-68
2022/10/24 06:09:36;;;;;;;48.80;8.97;;;;;;;20.94;45.85;100218.16;5051714;28;20192;-66
2022/10/24 06:12:07;;;;;;;31.07;8.13;;;;;;;20.95;46.64;100226.00;5054273;28;20290;-67
2022/10/24 06:14:33;;;;;;;26.27;7.03;;;;;;;20.95;46.10;100226.00;5071886;28;20180;-66
2022/10/24 06:17:00;;;;;;;32.97;6.73;;;;;;;21.02;46.08;100226.66;5071568;28;20257;-69
2022/10/24 06:19:27;;;;;;;13.60;5.90;;;;;;;21.09;45.90;100227.31;5068788;28;20188;-65
2022/10/24 06:21:54;;;;;;;19.63;6.40;;;;;;;21.39;50.72;100221.56;5053981;28;20224;-64
2022/10/24 06:24:20;;;;;;;21.53;5.67;;;;;;;21.81;47.67;100225.44;5055738;28;20196;-66
2022/10/24 06:26:47;;;;;;;21.47;6.37;;;;;;;22.01;43.75;100225.69;5074081;28;20199;-67
2022/10/24 06:29:15;;;;;;;29.80;7.00;;;;;;;22.12;46.30;100224.72;5075904;28;20187;-68
2022/10/24 06:31:42;;;;;;;13.57;6.50;;;;;;;22.55;43.93;100230.94;5075899;28;20191;-67
2022/10/24 06:34:09;;;;;;;12.50;5.87;;;;;;;22.97;42.56;100242.69;5075619;28;20196;-69
2022/10/24 06:36:35;;;;;;;34.47;7.93;;;;;;;23.16;41.20;100235.78;5075375;28;20567;-69
2022/10/24 06:39:02;;;;;;;18.70;6.57;;;;;;;23.30;40.54;100247.88;5076137;28;20199;-70
2022/10/24 06:41:29;;;;;;;13.37;6.63;;;;;;;23.37;39.75;100248.47;5075191;28;20695;-68
2022/10/24 06:43:56;;;;;;;10.27;6.77;;;;;;;23.68;39.93;100249.47;5075575;28;20210;-71
2022/10/24 06:46:24;;;;;;;12.43;6.20;;;;;;;23.80;39.80;100245.47;5067612;28;20235;-68
2022/10/24 06:48:53;;;;;;;13.87;6.50;;;;;;;23.90;39.48;100231.13;5055595;28;20255;-71
2022/10/24 06:51:20;;;;;;;14.73;6.17;;;;;;;24.19;38.73;100233.19;5055793;28;20286;-70
2022/10/24 06:53:47;;;;;;;11.57;5.40;;;;;;;24.27;37.80;100229.97;5059050;28;20727;-72
2022/10/24 06:56:14;;;;;;;14.97;5.23;;;;;;;24.22;37.80;100213.63;5075486;28;20247;-71
2022/10/24 06:58:41;;;;;;;10.40;4.10;;;;;;;24.05;36.57;100229.31;5074996;28;20209;-72
2022/10/24 07:01:09;;;;;;;5.57;3.23;;;;;;;23.70;37.55;100226.44;5075053;28;20280;-69
2022/10/24 07:03:37;;;;;;;20.83;4.93;;;;;;;23.70;39.96;100234.56;5074954;28;20194;-69
2022/10/24 07:06:08;;;;;;;9.40;4.40;;;;;;;24.05;39.48;100232.03;5072209;28;20619;-71
2022/10/24 07:08:34;;;;;;;4.13;3.70;;;;;;;24.00;37.49;100215.72;5066391;28;20204;-70
2022/10/24 07:11:01;;;;;;;16.13;4.00;;;;;;;24.06;37.13;100230.94;5051921;28;20300;-71
2022/10/24 07:13:29;;;;;;;6.67;3.07;;;;;;;23.94;38.00;100234.97;5051920;28;20191;-71
2022/10/24 07:15:56;;;;;;;8.40;3.67;;;;;;;24.15;38.18;100225.84;5052893;28;20203;-70
2022/10/24 07:18:22;;;;;;;6.97;3.27;;;;;;;24.20;37.16;100223.94;5054565;28;20206;-70
2022/10/24 07:20:50;;;;;;;7.93;3.87;;;;;;;24.51;37.66;100230.28;5054036;28;20291;-70
2022/10/24 07:23:17;;;;;;;10.00;3.60;;;;;;;24.74;36.92;100219.75;5055008;28;20195;-70
2022/10/24 07:25:45;;;;;;;24.03;4.10;;;;;;;24.68;37.12;100223.56;5064520;28;20191;-69
2022/10/24 07:28:12;;;;;;;9.77;3.80;;;;;;;24.59;37.51;100224.31;5074180;28;20665;-70
2022/10/24 07:30:39;;;;;;;9.43;4.00;;;;;;;24.95;36.19;100224.09;5074428;28;20574;-70
2022/10/24 07:33:07;;;;;;;4.60;3.50;;;;;;;25.13;35.75;100202.88;5074435;28;20190;-70
2022/10/24 07:35:33;;;;;;;11.80;3.47;;;;;;;25.17;36.00;100214.84;5074490;28;20194;-70
2022/10/24 07:38:01;;;;;;;17.87;4.83;;;;;;;25.38;36.15;100217.28;5074991;28;20196;-70
2022/10/24 07:40:28;;;;;;;7.63;3.40;;;;;;;25.40;34.45;100217.84;5074370;28;20694;-71
2022/10/24 07:42:55;;;;;;;7.30;3.40;;;;;;;25.31;35.84;100215.97;5074232;28;20191;-70
2022/10/24 07:45:21;;;;;;;7.23;3.70;;;;;;;25.58;35.37;100216.44;5074191;28;20587;-71
2022/10/24 07:47:48;;;;;;;31.03;4.77;;;;;;;25.90;34.67;100219.59;5074682;28;20204;-70
2022/10/24 07:50:16;;;;;;;25.00;4.37;;;;;;;26.16;34.35;100223.84;5074358;28;20192;-70
2022/10/24 07:52:42;;;;;;;15.60;3.60;;;;;;;26.40;34.62;100219.38;5074243;28;20235;-69
2022/10/24 07:55:11;;;;;;;6.77;3.40;;;;;;;26.59;34.72;100217.66;5074338;28;20192;-69
2022/10/24 07:57:37;;;;;;;6.80;3.40;;;;;;;26.90;33.57;100219.06;5074065;28;20585;-72
2022/10/24 08:00:05;;;;;;;4.90;3.43;;;;;;;26.73;32.48;100215.91;5074328;28;20257;-69
2022/10/24 08:02:32;;;;;;;7.20;3.37;;;;;;;26.10;33.49;100208.66;5074132;28;20228;-69
2022/10/24 08:04:59;;;;;;;7.37;3.67;;;;;;;25.83;34.34;100214.44;5073777;28;20568;-69
2022/10/24 08:07:25;;;;;;;4.77;3.27;;;;;;;25.96;33.81;100207.63;5074197;28;20191;-68
2022/10/24 08:09:52;;;;;;;8.83;3.47;;;;;;;26.01;33.62;100199.44;5074062;28;20192;-68
2022/10/24 08:12:20;;;;;;;20.97;4.20;;;;;;;25.84;34.37;100204.38;5074164;28;20224;-67
2022/10/24 08:14:47;;;;;;;10.03;3.33;;;;;;;25.94;34.10;100210.63;5073756;28;20188;-68
2022/10/24 08:17:16;;;;;;;3.67;3.00;;;;;;;26.14;34.61;100199.66;5073694;28;20542;-68
2022/10/24 08:19:43;;;;;;;8.80;3.87;;;;;;;26.28;34.17;100194.38;5073422;28;20572;-67
2022/10/24 08:22:10;;;;;;;24.23;3.50;;;;;;;26.34;33.25;100201.44;5073585;28;20764;-68
2022/10/24 08:24:37;;;;;;;15.63;4.73;;;;;;;26.49;33.15;100204.88;5073619;28;20253;-68
2022/10/24 08:27:03;;;;;;;9.83;3.47;;;;;;;26.77;33.39;100203.34;5073896;28;20188;-69
2022/10/24 08:29:31;;;;;;;18.40;3.90;;;;;;;26.93;32.92;100196.66;5073236;28;20196;-72
2022/10/24 08:31:58;;;;;;;5.23;3.30;;;;;;;27.03;31.70;100196.59;5073561;28;20204;-70
2022/10/24 08:34:25;;;;;;;10.13;3.20;;;;;;;27.23;31.98;100201.91;5073759;28;20272;-69
2022/10/24 08:36:52;;;;;;;5.03;3.20;;;;;;;27.37;31.83;100194.66;5073254;28;20257;-71
2022/10/24 08:39:19;;;;;;;3.77;3.40;;;;;;;27.32;31.78;100194.72;5073382;28;20253;-69
2022/10/24 08:41:50;;;;;;;8.17;3.73;;;;;;;27.09;32.22;100184.53;5073810;28;20666;-69
2022/10/24 08:44:21;;;;;;;5.27;3.80;;;;;;;26.88;31.99;100192.09;5073575;28;20279;-68
2022/10/24 08:46:53;;;;;;;16.10;4.00;;;;;;;26.93;31.74;100180.31;5073195;28;20690;-70
2022/10/24 08:49:28;;;;;;;11.03;4.00;;;;;;;26.88;33.14;100172.16;5073028;28;20180;-69
2022/10/24 08:51:59;;;;;;;7.30;3.63;;;;;;;27.11;32.92;100171.44;5073530;28;20237;-69
2022/10/24 08:54:30;;;;;;;6.37;3.40;;;;;;;27.39;32.25;100174.16;5073726;28;20188;-70
2022/10/24 08:56:58;;;;;;;7.90;3.20;;;;;;;27.65;31.71;100175.47;5072840;28;20233;-69
2022/10/24 08:59:28;;;;;;;6.30;3.70;;;;;;;27.73;29.92;100179.50;5072651;28;20232;-69
2022/10/24 09:02:00;;;;;;;8.43;3.90;;;;;;;27.74;30.20;100149.19;5072942;28;20223;-70
2022/10/24 09:04:31;;;;;;;46.93;5.63;;;;;;;28.00;30.37;100166.06;5072683;28;20185;-73
2022/10/24 09:06:58;;;;;;;16.43;4.73;;;;;;;28.16;30.91;100167.47;5072514;28;20249;-65
2022/10/24 09:09:30;;;;;;;11.10;4.03;;;;;;;28.16;30.64;100164.75;5073350;28;20737;-70
2022/10/24 09:12:01;;;;;;;10.53;3.70;;;;;;;28.11;31.20;100159.34;5093814;28;20236;-70
2022/10/24 09:14:30;;;;;;;9.67;3.70;;;;;;;28.06;30.74;100160.22;5093070;28;20240;-70
2022/10/24 09:17:02;;;;;;;4.27;3.07;;;;;;;27.98;29.78;100149.16;5093059;28;20662;-71
2022/10/24 09:19:30;;;;;;;6.83;3.30;;;;;;;28.06;30.70;100153.97;5093202;28;20183;-68
2022/10/24 09:22:00;;;;;;;4.80;3.53;;;;;;;28.19;31.18;100151.34;5092621;28;20700;-67
2022/10/24 09:24:39;;;;;;;13.43;4.00;;;;;;;28.22;29.89;100149.91;5092656;28;20252;-72
2022/10/24 09:27:14;;;;;;;6.37;2.90;;;;;;;28.06;30.63;100140.31;5052930;28;20180;-72
2022/10/24 09:29:41;;;;;;;13.63;4.67;;;;;;;27.88;29.83;100135.63;5066566;28;20183;-67
2022/10/24 09:32:16;;;;;;;10.90;4.20;;;;;;;27.85;30.57;100138.97;5072162;28;20667;-71
2022/10/24 09:34:43;;;;;;;4.83;3.10;;;;;;;27.76;30.70;100136.03;5072304;28;20270;-73
2022/10/24 09:37:36;;;;;;;9.77;4.13;;;;;;;27.67;30.79;100139.69;5072138;28;20620;-72
2022/10/24 09:40:16;;;;;;;6.30;3.03;;;;;;;27.36;30.87;100130.25;5072373;28;20221;-70
2022/10/24 09:42:50;;;;;;;6.10;3.40;;;;;;;27.25;31.39;100123.28;5072706;28;20261;-71
2022/10/24 09:45:27;;;;;;;5.30;3.30;;;;;;;27.11;31.46;100122.31;5069058;28;20195;-71
2022/10/24 09:47:57;;;;;;;5.10;2.93;;;;;;;27.08;31.59;100114.72;5052692;28;20222;-69
2022/10/24 09:50:24;;;;;;;5.77;3.57;;;;;;;27.03;31.96;100109.31;5067392;28;20743;-74
2022/10/24 09:52:53;;;;;;;5.77;3.33;;;;;;;27.18;32.25;100100.94;5071970;28;20222;-72
2022/10/24 09:55:23;;;;;;;10.03;3.60;;;;;;;27.41;31.26;100103.72;5058064;28;20246;-76
2022/10/24 09:57:53;;;;;;;6.90;3.40;;;;;;;27.23;31.67;100095.50;5051711;28;20203;-75
2022/10/24 10:00:23;;;;;;;8.50;3.57;;;;;;;27.33;32.19;100098.09;5052137;28;20279;-68
2022/10/24 10:03:00;;;;;;;9.07;3.07;;;;;;;27.46;31.33;100090.00;5052522;28;20220;-72
2022/10/24 10:05:29;;;;;;;7.03;3.40;;;;;;;27.60;30.96;100087.38;5050656;28;20247;-73
2022/10/24 10:07:56;;;;;;;6.90;3.40;;;;;;;27.78;31.10;100090.16;5052055;28;20684;-72
2022/10/24 10:10:41;;;;;;;8.10;3.23;;;;;;;27.85;30.99;100076.16;5051976;28;20196;-72
2022/10/24 10:13:22;;;;;;;8.10;3.73;;;;;;;27.98;30.61;100078.94;5051245;28;20192;-71
2022/10/24 10:15:52;;;;;;;8.80;3.00;;;;;;;27.89;30.73;100047.94;5051567;28;20195;-70
2022/10/24 10:18:26;;;;;;;7.83;3.43;;;;;;;28.09;30.56;100063.22;5051913;28;20247;-71
2022/10/24 10:21:15;;;;;;;4.43;3.50;;;;;;;28.14;30.50;100063.16;5051865;28;20184;-71
2022/10/24 10:23:44;;;;;;;8.13;3.80;;;;;;;28.28;30.82;100059.34;5047942;28;20188;-71
2022/10/24 10:26:26;;;;;;;6.77;3.40;;;;;;;28.45;30.05;100061.56;5064428;28;20222;-76
2022/10/24 10:28:59;;;;;;;13.80;3.10;;;;;;;28.57;29.96;100053.69;5067803;28;20259;-72
2022/10/24 10:31:34;;;;;;;5.87;3.43;;;;;;;28.46;29.92;100053.06;5071804;28;20242;-77
2022/10/24 10:34:14;;;;;;;3.83;2.97;;;;;;;28.52;29.80;100051.06;5072422;28;20233;-71
2022/10/24 10:36:51;;;;;;;5.47;3.43;;;;;;;28.45;29.88;100050.63;5071521;28;20180;-71
2022/10/24 10:39:34;;;;;;;23.23;4.03;;;;;;;28.53;29.93;100041.72;5072153;28;20274;-73
2022/10/24 10:42:08;;;;;;;7.20;3.23;;;;;;;28.34;29.65;100038.22;5071258;28;20637;-68
2022/10/24 10:45:01;;;;;;;10.00;3.90;;;;;;;28.26;29.91;100036.97;5072117;28;20195;-68
2022/10/24 10:47:36;;;;;;;9.20;3.67;;;;;;;28.24;30.15;100030.19;5069717;28;20258;-68
2022/10/24 10:50:23;;;;;;;5.63;3.53;;;;;;;27.72;30.77;100030.44;5071046;28;20542;-68
2022/10/24 10:52:51;;;;;;;11.30;3.40;;;;;;;27.86;30.64;100023.16;5072261;28;20192;-68
2022/10/24 10:55:30;;;;;;;10.53;4.20;;;;;;;27.86;30.87;100020.41;5064326;28;20205;-68
2022/10/24 10:58:05;;;;;;;12.33;4.13;;;;;;;27.99;30.84;100022.38;5049961;28;20185;-69
2022/10/24 11:00:40;;;;;;;6.83;3.67;;;;;;;28.12;30.57;100013.44;5049382;28;20250;-68
2022/10/24 11:03:33;;;;;;;11.87;3.43;;;;;;;28.03;30.46;100010.59;5060024;28;20206;-69
2022/10/24 11:06:16;;;;;;;9.47;4.07;;;;;;;28.04;30.84;100001.28;5069772;28;20188;-69
2022/10/24 11:09:06;;;;;;;8.40;3.67;;;;;;;28.13;30.77;100004.16;5071841;28;20200;-70
2022/10/24 11:11:38;;;;;;;8.07;3.57;;;;;;;27.99;30.79;100003.28;5073379;28;20228;-70
2022/10/24 11:14:17;;;;;;;4.87;3.40;;;;;;;28.06;30.78;99999.03;5074865;28;20230;-68
2022/10/24 11:16:46;;;;;;;9.50;3.73;;;;;;;28.19;31.27;99998.31;5074364;28;20214;-72
2022/10/24 11:19:24;;;;;;;11.03;3.53;;;;;;;28.28;31.19;99996.50;5076022;28;20520;-68
2022/10/24 11:21:55;;;;;;;17.37;3.90;;;;;;;28.38;30.97;99995.53;5072496;28;20216;-68
2022/10/24 11:24:24;;;;;;;5.13;3.27;;;;;;;28.45;31.20;99985.00;5054505;28;20636;-68
2022/10/24 11:26:56;;;;;;;10.30;5.00;;;;;;;28.54;32.42;99983.22;5073026;28;20745;-68
2022/10/24 11:29:29;;;;;;;6.73;5.10;;;;;;;28.54;32.80;99983.22;5068047;28;20209;-69
2022/10/24 11:32:01;;;;;;;10.40;3.53;;;;;;;28.27;31.01;99977.66;5071474;28;20195;-69
2022/10/24 11:34:33;;;;;;;5.53;3.20;;;;;;;27.90;31.63;99962.19;5075721;28;20188;-69